createdAt,value
2023-12-11T00:01:41.237Z,11.37
2023-12-11T00:04:07.902Z,11.27
2023-12-11T00:06:34.879Z,11.27
2023-12-11T00:09:01.521Z,11.31
2023-12-11T00:11:28.457Z,11.24
2023-12-11T00:13:55.256Z,11.24
2023-12-11T00:16:22.081Z,11.26
2023-12-11T00:18:50.221Z,11.30
2023-12-11T00:21:17.543Z,11.23
2023-12-11T00:23:44.235Z,11.38
2023-12-11T00:26:11.770Z,11.35
2023-12-11T00:28:38.222Z,11.35
2023-12-11T00:31:12.011Z,11.47
2023-12-11T00:33:40.081Z,11.39
2023-12-11T00:36:06.877Z,11.48
2023-12-11T00:38:33.354Z,11.39
2023-12-11T00:40:59.853Z,11.34
2023-12-11T00:43:26.739Z,11.42
2023-12-11T00:46:20.496Z,11.30
2023-12-11T00:48:47.220Z,11.32
2023-12-11T00:51:21.677Z,11.42
2023-12-11T00:53:48.765Z,11.24
2023-12-11T00:56:15.515Z,11.17
2023-12-11T01:00:36.477Z,11.35
2023-12-11T01:03:04.297Z,11.10
2023-12-11T01:05:30.881Z,11.23
2023-12-11T01:07:57.828Z,11.32
2023-12-11T01:10:24.280Z,11.37
2023-12-11T01:12:51.269Z,11.18
2023-12-11T01:15:17.799Z,11.07
2023-12-11T01:17:44.622Z,11.26
2023-12-11T01:20:11.829Z,11.17
2023-12-11T01:22:38.586Z,11.34
2023-12-11T01:25:05.476Z,11.31
2023-12-11T01:27:32.554Z,11.39
2023-12-11T01:29:59.923Z,11.39
2023-12-11T01:32:26.514Z,11.31
2023-12-11T01:34:53.722Z,11.30
2023-12-11T01:37:20.391Z,11.28
2023-12-11T01:39:46.937Z,11.35
2023-12-11T01:42:15.054Z,11.32
2023-12-11T01:44:41.538Z,11.48
2023-12-11T01:47:08.061Z,11.42
2023-12-11T01:49:36.686Z,11.35
2023-12-11T01:52:04.672Z,11.51
2023-12-11T01:54:31.841Z,11.49
2023-12-11T01:56:58.589Z,11.47
2023-12-11T01:59:25.231Z,11.35
2023-12-11T02:01:52.101Z,11.48
2023-12-11T02:04:18.786Z,11.35
2023-12-11T02:06:45.401Z,11.44
2023-12-11T02:09:12.183Z,11.44
2023-12-11T02:11:38.819Z,11.48
2023-12-11T02:14:05.495Z,11.49
2023-12-11T02:16:34.312Z,11.58
2023-12-11T02:19:00.797Z,11.54
2023-12-11T02:21:27.375Z,11.65
2023-12-11T02:24:04.759Z,11.59
2023-12-11T02:26:31.213Z,11.55
2023-12-11T02:28:57.670Z,11.61
2023-12-11T02:31:24.075Z,11.57
2023-12-11T02:33:50.802Z,11.55
2023-12-11T02:36:17.342Z,11.57
2023-12-11T02:38:44.012Z,11.48
2023-12-11T02:41:10.503Z,11.48
2023-12-11T02:43:36.938Z,11.47
2023-12-11T02:46:04.165Z,11.52
2023-12-11T02:48:33.268Z,11.61
2023-12-11T02:51:01.002Z,11.72
2023-12-11T02:53:27.611Z,11.75
2023-12-11T02:55:54.175Z,11.70
2023-12-11T02:58:20.678Z,11.58
2023-12-11T03:00:47.232Z,11.51
2023-12-11T03:03:13.824Z,11.54
2023-12-11T03:05:40.352Z,11.51
2023-12-11T03:08:07.108Z,11.59
2023-12-11T03:10:34.120Z,11.57
2023-12-11T03:13:00.806Z,11.58
2023-12-11T03:15:27.530Z,11.65
2023-12-11T03:17:53.934Z,11.68
2023-12-11T03:20:20.418Z,11.75
2023-12-11T03:22:46.914Z,11.68
2023-12-11T03:25:13.563Z,11.72
2023-12-11T03:27:40.106Z,11.70
2023-12-11T03:30:07.382Z,11.57
2023-12-11T03:32:33.859Z,11.55
2023-12-11T03:35:00.465Z,11.75
2023-12-11T03:37:26.993Z,11.69
2023-12-11T03:39:53.550Z,11.83
2023-12-11T03:42:20.069Z,11.78
2023-12-11T03:44:46.609Z,11.79
2023-12-11T03:47:13.300Z,11.75
2023-12-11T03:49:39.875Z,11.61
2023-12-11T03:52:06.494Z,11.52
2023-12-11T03:54:33.126Z,11.51
2023-12-11T03:56:59.646Z,11.63
2023-12-11T03:59:26.201Z,11.75
2023-12-11T04:01:52.775Z,11.70
2023-12-11T04:04:19.519Z,11.79
2023-12-11T04:06:46.092Z,11.75
2023-12-11T04:09:12.629Z,11.74
2023-12-11T04:11:39.170Z,11.81
2023-12-11T04:14:05.725Z,11.82
2023-12-11T04:16:32.680Z,11.82
2023-12-11T04:19:00.712Z,11.85
2023-12-11T04:21:27.842Z,11.82
2023-12-11T04:23:56.377Z,11.66
2023-12-11T04:26:23.145Z,11.58
2023-12-11T04:28:49.526Z,11.55
2023-12-11T04:31:16.110Z,11.86
2023-12-11T04:33:42.770Z,11.75
2023-12-11T04:36:09.938Z,11.69
2023-12-11T04:38:36.822Z,11.74
2023-12-11T04:41:04.048Z,11.82
2023-12-11T04:43:32.095Z,11.88
2023-12-11T04:45:59.959Z,11.85
2023-12-11T04:48:26.649Z,11.82
2023-12-11T04:50:53.318Z,11.93
2023-12-11T04:53:19.757Z,11.95
2023-12-11T04:55:46.478Z,11.90
2023-12-11T04:58:13.158Z,11.92
2023-12-11T05:00:39.724Z,11.92
2023-12-11T05:03:07.344Z,11.86
2023-12-11T05:05:35.767Z,11.79
2023-12-11T05:08:02.336Z,11.65
2023-12-11T05:10:29.681Z,11.57
2023-12-11T05:12:59.218Z,11.49
2023-12-11T05:15:25.660Z,11.23
2023-12-11T05:17:52.282Z,11.20
2023-12-11T05:20:20.186Z,11.10
2023-12-11T05:22:46.887Z,11.31
2023-12-11T05:25:13.676Z,11.23
2023-12-11T05:27:42.128Z,10.93
2023-12-11T05:30:09.962Z,10.80
2023-12-11T05:32:36.736Z,10.69
2023-12-11T05:35:04.975Z,10.70
2023-12-11T05:37:31.868Z,10.93
2023-12-11T05:40:21.154Z,10.90
2023-12-11T05:42:48.584Z,10.77
2023-12-11T05:45:15.468Z,10.28
2023-12-11T05:47:42.220Z,10.04
2023-12-11T05:50:09.310Z,9.86
2023-12-11T05:52:38.344Z,9.71
2023-12-11T05:55:06.886Z,9.60
2023-12-11T05:57:33.522Z,9.64
2023-12-11T06:00:00.053Z,9.62
2023-12-11T06:02:26.864Z,9.57
2023-12-11T06:04:53.797Z,9.47
2023-12-11T06:07:20.965Z,9.44
2023-12-11T06:09:49.657Z,9.35
2023-12-11T06:12:17.182Z,9.25
2023-12-11T06:14:48.324Z,9.36
2023-12-11T06:17:15.946Z,9.35
2023-12-11T06:19:45.408Z,9.59
2023-12-11T06:22:12.541Z,9.64
2023-12-11T06:24:40.630Z,9.83
2023-12-11T06:27:08.169Z,9.89
2023-12-11T06:29:35.530Z,10.01
2023-12-11T06:32:02.216Z,10.14
2023-12-11T06:34:28.812Z,10.24
2023-12-11T06:36:55.580Z,10.28
2023-12-11T06:39:22.331Z,10.39
2023-12-11T06:41:48.904Z,10.53
2023-12-11T06:44:15.383Z,10.52
2023-12-11T06:46:41.911Z,10.59
2023-12-11T06:49:08.505Z,10.59
2023-12-11T06:51:36.244Z,10.58
2023-12-11T06:54:02.795Z,10.77
2023-12-11T06:56:32.471Z,10.80
2023-12-11T06:58:59.579Z,10.75
2023-12-11T07:01:37.092Z,10.66
2023-12-11T07:04:04.863Z,10.68
2023-12-11T07:06:34.580Z,10.76
2023-12-11T07:09:01.322Z,10.75
2023-12-11T07:11:27.903Z,10.73
2023-12-11T07:13:57.803Z,10.69
2023-12-11T07:16:25.260Z,10.63
2023-12-11T07:18:53.311Z,10.77
2023-12-11T07:21:19.993Z,10.80
2023-12-11T07:23:49.805Z,10.83
2023-12-11T07:26:16.915Z,10.89
2023-12-11T07:28:43.756Z,10.89
2023-12-11T07:32:36.448Z,10.96
2023-12-11T07:35:04.107Z,10.96
2023-12-11T07:37:32.930Z,11.01
2023-12-11T07:40:00.135Z,11.00
2023-12-11T07:42:26.801Z,10.99
2023-12-11T07:44:53.347Z,11.08
2023-12-11T07:47:20.001Z,11.13
2023-12-11T07:49:46.571Z,11.21
2023-12-11T07:52:13.318Z,11.16
2023-12-11T07:54:40.248Z,11.26
2023-12-11T07:57:06.941Z,11.21
2023-12-11T07:59:33.617Z,11.23
2023-12-11T08:02:00.300Z,11.27
2023-12-11T08:04:27.102Z,11.37
2023-12-11T08:06:54.020Z,11.47
2023-12-11T08:09:21.034Z,11.34
2023-12-11T08:11:47.661Z,11.38
2023-12-11T08:14:14.197Z,11.37
2023-12-11T08:16:40.863Z,11.37
2023-12-11T08:19:07.898Z,11.30
2023-12-11T08:21:34.542Z,11.28
2023-12-11T08:24:01.094Z,11.27
2023-12-11T08:26:28.284Z,11.26
2023-12-11T08:28:58.355Z,11.26
2023-12-11T08:31:26.435Z,11.31
2023-12-11T08:33:53.203Z,11.39
2023-12-11T08:36:19.854Z,11.41
2023-12-11T08:38:46.609Z,11.38
2023-12-11T08:41:13.256Z,11.39
2023-12-11T08:43:39.859Z,11.45
2023-12-11T08:46:06.694Z,11.47
2023-12-11T08:48:33.677Z,11.48
2023-12-11T08:51:00.326Z,11.49
2023-12-11T08:53:26.975Z,11.55
2023-12-11T08:55:55.121Z,11.55
2023-12-11T08:58:21.756Z,11.51
2023-12-11T09:00:49.014Z,11.45
2023-12-11T09:03:15.992Z,11.49
2023-12-11T09:05:42.939Z,11.54
2023-12-11T09:08:10.879Z,11.54
2023-12-11T09:10:37.444Z,11.58
2023-12-11T09:13:04.108Z,11.58
2023-12-11T09:15:30.873Z,11.52
2023-12-11T09:17:57.715Z,11.61
2023-12-11T09:20:24.382Z,11.58
2023-12-11T09:22:51.029Z,11.62
2023-12-11T09:25:17.754Z,11.62
2023-12-11T09:27:45.742Z,11.65
2023-12-11T09:30:14.107Z,11.59
2023-12-11T09:32:41.609Z,11.62
2023-12-11T09:35:09.479Z,11.61
2023-12-11T09:37:36.347Z,11.59
2023-12-11T09:40:04.019Z,11.54
2023-12-11T09:42:31.221Z,11.59
2023-12-11T09:44:58.867Z,11.58
2023-12-11T09:47:30.438Z,11.49
2023-12-11T09:49:57.394Z,11.47
2023-12-11T09:52:24.714Z,11.57
2023-12-11T09:54:51.410Z,11.54
2023-12-11T09:57:18.136Z,11.18
2023-12-11T09:59:45.235Z,11.03
2023-12-11T10:02:17.585Z,11.06
2023-12-11T10:05:04.201Z,11.07
2023-12-11T10:07:32.863Z,10.99
2023-12-11T10:10:00.908Z,11.16
2023-12-11T10:12:40.159Z,11.20
2023-12-11T10:15:07.266Z,11.34
2023-12-11T10:17:34.418Z,11.34
2023-12-11T10:20:01.558Z,11.34
2023-12-11T10:22:32.317Z,11.31
2023-12-11T10:24:59.830Z,11.27
2023-12-11T10:27:27.319Z,11.04
2023-12-11T10:30:14.213Z,10.94
2023-12-11T10:32:41.220Z,10.94
2023-12-11T10:35:09.281Z,10.97
2023-12-11T10:37:36.004Z,11.00
2023-12-11T10:40:04.641Z,10.96
2023-12-11T10:42:31.469Z,10.97
2023-12-11T10:44:58.194Z,10.91
2023-12-11T10:47:25.129Z,10.86
2023-12-11T10:49:52.009Z,10.81
2023-12-11T10:52:18.886Z,10.87
2023-12-11T10:54:46.670Z,10.87
2023-12-11T10:57:18.659Z,10.89
2023-12-11T10:59:45.808Z,10.86
2023-12-11T11:02:16.806Z,10.86
2023-12-11T11:04:44.637Z,10.89
2023-12-11T11:07:25.383Z,10.90
2023-12-11T11:10:10.500Z,10.93
2023-12-11T11:12:44.235Z,10.90
2023-12-11T11:15:11.425Z,10.89
2023-12-11T11:18:04.490Z,10.93
2023-12-11T11:20:38.663Z,10.93
2023-12-11T11:23:14.545Z,10.94
2023-12-11T11:25:41.690Z,10.99
2023-12-11T11:28:47.979Z,11.01
2023-12-11T11:31:23.532Z,11.00
2023-12-11T11:33:56.143Z,11.00
2023-12-11T11:36:49.933Z,10.94
2023-12-11T11:39:16.542Z,10.97
2023-12-11T11:41:44.146Z,10.91
2023-12-11T11:44:11.615Z,10.75
2023-12-11T11:46:57.886Z,10.39
2023-12-11T11:49:35.670Z,10.24
2023-12-11T11:52:11.742Z,10.18
2023-12-11T11:54:39.433Z,10.14
2023-12-11T11:57:10.011Z,10.14
2023-12-11T11:59:46.085Z,10.11
2023-12-11T12:02:12.828Z,10.15
2023-12-11T12:04:39.660Z,10.08
2023-12-11T12:07:07.048Z,10.01
2023-12-11T12:09:35.116Z,9.91
2023-12-11T12:12:02.645Z,9.86
2023-12-11T12:14:29.436Z,9.89
2023-12-11T12:16:56.622Z,9.97
2023-12-11T12:19:33.646Z,9.97
2023-12-11T12:22:02.785Z,10.11
2023-12-11T12:24:30.789Z,10.25
2023-12-11T12:27:02.278Z,10.37
2023-12-11T12:29:32.401Z,10.41
2023-12-11T12:32:00.823Z,10.45
2023-12-11T12:34:30.810Z,10.50
2023-12-11T12:37:00.620Z,10.55
2023-12-11T12:39:27.382Z,10.58
2023-12-11T12:41:55.477Z,10.52
2023-12-11T12:44:22.548Z,10.55
2023-12-11T12:46:49.192Z,10.55
2023-12-11T12:49:17.227Z,10.60
2023-12-11T12:51:54.758Z,10.55
2023-12-11T12:54:25.252Z,10.56
2023-12-11T12:56:57.062Z,10.56
2023-12-11T12:59:24.719Z,10.58
2023-12-11T13:01:51.644Z,10.56
2023-12-11T13:04:18.346Z,10.55
2023-12-11T13:06:46.581Z,10.60
2023-12-11T13:09:31.305Z,10.60
2023-12-11T13:11:57.937Z,10.60
2023-12-11T13:14:28.052Z,10.60
2023-12-11T13:16:56.603Z,10.68
2023-12-11T13:19:25.279Z,10.63
2023-12-11T13:21:52.675Z,10.60
2023-12-11T13:24:19.820Z,10.56
2023-12-11T13:26:46.417Z,10.55
2023-12-11T13:29:13.256Z,10.49
2023-12-11T13:31:39.813Z,10.49
2023-12-11T13:34:06.600Z,10.50
2023-12-11T13:36:33.701Z,10.46
2023-12-11T13:39:00.450Z,10.48
2023-12-11T13:41:27.085Z,10.46
2023-12-11T13:43:54.156Z,10.44
2023-12-11T13:46:20.897Z,10.41
2023-12-11T13:48:47.738Z,10.44
2023-12-11T13:51:14.416Z,10.35
2023-12-11T13:53:41.143Z,10.38
2023-12-11T13:56:07.984Z,10.37
2023-12-11T13:58:35.020Z,10.35
2023-12-11T14:01:02.119Z,10.28
2023-12-11T14:03:28.956Z,10.28
2023-12-11T14:05:55.789Z,10.31
2023-12-11T14:08:22.428Z,10.31
2023-12-11T14:10:49.132Z,10.31
2023-12-11T14:13:15.758Z,10.32
2023-12-11T14:15:43.815Z,10.32
2023-12-11T14:18:12.005Z,10.37
2023-12-11T14:20:39.219Z,10.33
2023-12-11T14:23:05.804Z,10.31
2023-12-11T14:25:33.294Z,10.35
2023-12-11T14:28:06.076Z,10.37
2023-12-11T14:30:34.888Z,10.33
2023-12-11T14:33:01.694Z,10.28
2023-12-11T14:35:28.479Z,10.25
2023-12-11T14:37:55.345Z,10.20
2023-12-11T14:40:22.326Z,10.24
2023-12-11T14:42:49.254Z,10.15
2023-12-11T14:45:15.917Z,10.08
2023-12-11T14:47:42.829Z,10.12
2023-12-11T14:50:10.295Z,10.10
2023-12-11T14:52:37.016Z,10.05
2023-12-11T14:55:04.185Z,9.95
2023-12-11T14:57:30.980Z,9.94
2023-12-11T14:59:57.821Z,9.83
2023-12-11T15:02:24.360Z,9.89
2023-12-11T15:04:51.299Z,9.80
2023-12-11T15:07:18.150Z,9.81
2023-12-11T15:09:44.798Z,9.80
2023-12-11T15:12:12.116Z,9.77
2023-12-11T15:14:38.897Z,9.76
2023-12-11T15:17:06.867Z,9.74
2023-12-11T15:19:36.122Z,9.70
2023-12-11T15:22:02.798Z,9.70
2023-12-11T15:24:29.476Z,9.67
2023-12-11T15:26:56.105Z,9.62
2023-12-11T15:29:22.762Z,9.53
2023-12-11T15:31:49.387Z,9.38
2023-12-11T15:34:16.084Z,9.31
2023-12-11T15:36:42.757Z,9.31
2023-12-11T15:39:10.537Z,9.39
2023-12-11T15:41:37.101Z,9.36
2023-12-11T15:44:05.517Z,9.28
2023-12-11T15:46:32.196Z,9.21
2023-12-11T15:48:59.502Z,9.32
2023-12-11T15:51:27.120Z,9.25
2023-12-11T15:53:54.405Z,9.29
2023-12-11T15:56:22.198Z,9.35
2023-12-11T15:58:49.098Z,9.21
2023-12-11T16:01:16.271Z,9.02
2023-12-11T16:03:43.180Z,8.98
2023-12-11T16:06:10.589Z,8.97
2023-12-11T16:08:37.718Z,8.91
2023-12-11T16:11:04.608Z,8.84
2023-12-11T16:13:31.859Z,8.77
2023-12-11T16:15:59.133Z,8.70
2023-12-11T16:18:25.987Z,8.70
2023-12-11T16:20:52.695Z,8.71
2023-12-11T16:23:19.621Z,8.68
2023-12-11T16:25:51.823Z,8.73
2023-12-11T16:28:26.698Z,8.73
2023-12-11T16:30:53.483Z,8.77
2023-12-11T16:33:20.345Z,8.77
2023-12-11T16:35:46.941Z,8.80
2023-12-11T16:38:13.776Z,8.77
2023-12-11T16:40:42.061Z,8.75
2023-12-11T16:43:09.628Z,8.78
2023-12-11T16:45:36.370Z,8.82
2023-12-11T16:48:03.172Z,8.82
2023-12-11T16:50:29.956Z,8.85
2023-12-11T16:52:57.195Z,8.85
2023-12-11T16:55:24.083Z,8.84
2023-12-11T16:57:51.583Z,8.87
2023-12-11T17:00:19.620Z,8.88
2023-12-11T17:02:46.396Z,8.84
2023-12-11T17:05:13.233Z,8.89
2023-12-11T17:07:39.931Z,8.91
2023-12-11T17:10:07.106Z,8.95
2023-12-11T17:12:34.340Z,8.97
2023-12-11T17:15:01.851Z,9.01
2023-12-11T17:17:28.873Z,9.00
2023-12-11T17:19:55.995Z,9.01
2023-12-11T17:22:22.830Z,8.98
2023-12-11T17:24:49.764Z,8.97
2023-12-11T17:27:16.612Z,8.98
2023-12-11T17:29:43.637Z,8.91
2023-12-11T17:32:10.242Z,8.95
2023-12-11T17:34:37.046Z,9.05
2023-12-11T17:37:04.041Z,9.07
2023-12-11T17:39:30.780Z,9.02
2023-12-11T17:41:57.303Z,9.08
2023-12-11T17:44:23.824Z,9.15
2023-12-11T17:46:50.436Z,9.16
2023-12-11T17:49:17.068Z,9.18
2023-12-11T17:51:43.725Z,9.19
2023-12-11T17:54:10.363Z,9.26
2023-12-11T17:56:36.932Z,9.23
2023-12-11T17:59:03.649Z,9.26
2023-12-11T18:01:30.366Z,9.31
2023-12-11T18:03:57.159Z,9.42
2023-12-11T18:06:23.772Z,9.44
2023-12-11T18:08:50.425Z,9.57
2023-12-11T18:11:17.137Z,9.57
2023-12-11T18:13:43.824Z,9.62
2023-12-11T18:16:10.611Z,9.62
2023-12-11T18:18:37.262Z,9.64
2023-12-11T18:21:04.141Z,9.64
2023-12-11T18:23:30.725Z,9.63
2023-12-11T18:25:57.402Z,9.64
2023-12-11T18:28:24.327Z,9.64
2023-12-11T18:30:51.119Z,9.62
2023-12-11T18:33:17.804Z,9.69
2023-12-11T18:35:44.449Z,9.63
2023-12-11T18:38:10.940Z,9.64
2023-12-11T18:40:37.625Z,9.66
2023-12-11T18:43:04.304Z,9.64
2023-12-11T18:45:31.026Z,9.62
2023-12-11T18:47:57.604Z,9.59
2023-12-11T18:50:24.411Z,9.63
2023-12-11T18:52:51.021Z,9.60
2023-12-11T18:57:36.070Z,9.52
2023-12-11T19:00:02.561Z,9.47
2023-12-11T19:02:29.357Z,9.42
2023-12-11T19:04:55.972Z,9.40
2023-12-11T19:07:23.843Z,9.39
2023-12-11T19:09:50.398Z,9.38
2023-12-11T19:12:16.857Z,9.43
2023-12-11T19:14:43.333Z,9.39
2023-12-11T19:17:09.739Z,9.46
2023-12-11T19:19:36.314Z,9.44
2023-12-11T19:22:03.113Z,9.49
2023-12-11T19:24:29.895Z,9.44
2023-12-11T19:26:56.746Z,9.50
2023-12-11T19:29:24.153Z,9.57
2023-12-11T19:31:50.958Z,9.56
2023-12-11T19:34:18.172Z,9.62
2023-12-11T19:36:45.008Z,9.62
2023-12-11T19:39:11.782Z,9.53
2023-12-11T19:41:38.379Z,9.56
2023-12-11T19:44:04.928Z,9.60
2023-12-11T19:46:31.833Z,9.57
2023-12-11T19:48:58.478Z,9.59
2023-12-11T19:51:29.868Z,9.62
2023-12-11T19:53:57.501Z,9.63
2023-12-11T19:56:24.143Z,9.62
2023-12-11T19:58:51.235Z,9.64
2023-12-11T20:01:31.816Z,9.63
2023-12-11T20:03:58.614Z,9.70
2023-12-11T20:06:26.637Z,9.71
2023-12-11T20:08:53.961Z,9.71
2023-12-11T20:11:21.397Z,9.73
2023-12-11T20:13:48.388Z,9.76
2023-12-11T20:16:15.054Z,9.73
2023-12-11T20:18:42.128Z,9.74
2023-12-11T20:21:08.572Z,9.74
2023-12-11T20:23:37.854Z,9.70
2023-12-11T20:26:06.769Z,9.64
2023-12-11T20:28:33.896Z,9.56
2023-12-11T20:31:00.909Z,9.53
2023-12-11T20:33:27.540Z,9.52
2023-12-11T20:35:54.543Z,9.56
2023-12-11T20:38:20.983Z,9.53
2023-12-11T20:40:48.582Z,9.47
2023-12-11T20:43:15.191Z,9.35
2023-12-11T20:45:41.771Z,9.50
2023-12-11T20:48:08.422Z,9.59
2023-12-11T20:50:34.952Z,9.59
2023-12-11T20:53:01.432Z,9.57
2023-12-11T20:55:28.573Z,9.62
2023-12-11T20:57:55.494Z,9.59
2023-12-11T21:00:22.121Z,9.59
2023-12-11T21:02:48.528Z,9.57
2023-12-11T21:05:15.079Z,9.59
2023-12-11T21:07:42.608Z,9.57
2023-12-11T21:10:09.377Z,9.49
2023-12-11T21:12:35.884Z,9.53
2023-12-11T21:15:04.017Z,9.47
2023-12-11T21:17:31.341Z,9.49
2023-12-11T21:19:58.444Z,9.46
2023-12-11T21:22:24.988Z,9.44
2023-12-11T21:24:52.076Z,9.47
2023-12-11T21:27:18.985Z,9.44
2023-12-11T21:29:45.550Z,9.44
2023-12-11T21:32:12.031Z,9.47
2023-12-11T21:34:43.101Z,9.47
2023-12-11T21:37:09.858Z,9.47
2023-12-11T21:39:37.007Z,9.47
2023-12-11T21:42:04.844Z,9.46
2023-12-11T21:44:31.719Z,9.44
2023-12-11T21:46:59.565Z,9.54
2023-12-11T21:49:26.271Z,9.49
2023-12-11T21:51:53.114Z,9.53
2023-12-11T21:54:19.655Z,9.52
2023-12-11T21:56:46.108Z,9.49
2023-12-11T21:59:12.584Z,9.52
2023-12-11T22:01:39.124Z,9.52
2023-12-11T22:04:05.958Z,9.49
2023-12-11T22:06:34.123Z,9.52
2023-12-11T22:09:00.533Z,9.50
2023-12-11T22:11:26.945Z,9.53
2023-12-11T22:13:53.427Z,9.52
2023-12-11T22:16:20.031Z,9.50
2023-12-11T22:18:48.629Z,9.49
2023-12-11T22:21:28.210Z,9.52
2023-12-11T22:23:54.662Z,9.49
2023-12-11T22:26:22.135Z,9.50
2023-12-11T22:28:48.718Z,9.52
2023-12-11T22:31:15.297Z,9.52
2023-12-11T22:33:41.821Z,9.54
2023-12-11T22:36:08.384Z,9.47
2023-12-11T22:38:34.924Z,9.46
2023-12-11T22:41:01.979Z,9.44
2023-12-11T22:43:28.825Z,9.52
2023-12-11T22:45:55.346Z,9.46
2023-12-11T22:48:21.857Z,9.43
2023-12-11T22:50:48.341Z,9.42
2023-12-11T22:53:14.752Z,9.47
2023-12-11T22:55:41.621Z,9.47
2023-12-11T22:58:15.648Z,9.49
2023-12-11T23:00:43.711Z,9.44
2023-12-11T23:03:10.270Z,9.46
2023-12-11T23:05:37.500Z,9.47
2023-12-11T23:08:04.221Z,9.50
2023-12-11T23:10:30.775Z,9.49
2023-12-11T23:12:57.589Z,9.54
2023-12-11T23:15:24.167Z,9.60
2023-12-11T23:17:50.731Z,9.57
2023-12-11T23:20:17.690Z,9.54
2023-12-11T23:22:44.513Z,9.54
2023-12-11T23:25:11.272Z,9.54
2023-12-11T23:27:37.789Z,9.59
2023-12-11T23:30:07.790Z,9.64
2023-12-11T23:32:35.808Z,9.63
2023-12-11T23:35:03.897Z,9.63
2023-12-11T23:37:31.638Z,9.57
2023-12-11T23:39:58.531Z,9.62
2023-12-11T23:42:25.061Z,9.56
2023-12-11T23:44:51.557Z,9.59
2023-12-11T23:47:18.302Z,9.63
2023-12-11T23:49:45.046Z,9.63
2023-12-11T23:52:11.697Z,9.64
2023-12-11T23:54:38.302Z,9.67
2023-12-11T23:57:05.029Z,9.74
2023-12-11T23:59:31.519Z,9.77
